Ellerslie, Maryland
Current Conditions -  °F | °C
As of 12:59 AM on Sunday 23 Nov 2014 (Local Time) from KCBE Reporting Station
Scattered Clouds Scattered Clouds  
Wind Chill:   Ceiling: Unl
Heat Index:   Visibility: 10mi
Dew Point: -4°   Wind: 0mph
Humidity: 75%   Direction: NA
Pressure: 30.21"   Gusts: NA
Location:  39.72°N, 78.77°W
Report Text: KCBE 230559Z AUTO 00000KT 10SM SCT090 SCT110 00/M04 A3021 RMK AO1
Loading
Personal Weather Stations






























Interactive Weather Map New forecast layout! Learn more

10-Day Weather Forecast

Advertisements
Track Severe Weather on mobile